Time;durP1;ratioP1;P1;durP2;ratioP2;P2;SDS_P1;SDS_P2;PMS_P1;PMS_P2;Temp;Humidity;BMP_temperature;BMP_pressure;BME280_temperature;BME280_humidity;BME280_pressure;Samples;Min_cycle;Max_cycle;Signal;HPM_P1;HPM_P2
2023/03/21 00:01:15;;;;;;;7.22;3.80;;;;;;;-145.01;100.00;64805.59;5079810;28;20065;-61
2023/03/21 00:03:45;;;;;;;11.57;4.22;;;;;;;-145.01;100.00;64805.59;5081552;28;20032;-60
2023/03/21 00:06:11;;;;;;;11.02;4.30;;;;;;;-145.01;100.00;64805.59;5081768;28;20032;-60
2023/03/21 00:08:37;;;;;;;11.38;4.60;;;;;;;-145.01;100.00;64805.59;5077610;28;20036;-60
2023/03/21 00:11:04;;;;;;;10.13;3.95;;;;;;;-145.01;100.00;64805.59;5080252;28;20031;-60
2023/03/21 00:13:32;;;;;;;12.77;4.50;;;;;;;-145.01;100.00;64805.59;5080242;28;20402;-60
2023/03/21 00:16:19;;;;;;;10.30;3.97;;;;;;;-145.01;100.00;64805.59;5084875;28;20028;-60
2023/03/21 00:18:46;;;;;;;11.20;4.40;;;;;;;-145.01;100.00;64805.59;5042438;28;20028;-60
2023/03/21 00:21:15;;;;;;;10.88;4.30;;;;;;;-145.01;100.00;64805.59;5078691;28;20029;-60
2023/03/21 00:23:41;;;;;;;10.68;4.38;;;;;;;-145.01;100.00;64805.59;5076895;28;20040;-60
2023/03/21 00:26:08;;;;;;;11.25;4.40;;;;;;;-145.01;100.00;64805.59;5086307;28;20037;-60
2023/03/21 00:28:35;;;;;;;11.85;4.75;;;;;;;-145.01;100.00;64805.59;5081050;28;20080;-60
2023/03/21 00:31:00;;;;;;;12.75;3.88;;;;;;;-145.01;100.00;64805.59;5083935;28;20028;-60
2023/03/21 00:33:26;;;;;;;10.95;4.47;;;;;;;-145.01;100.00;64805.59;5088199;28;20088;-60
2023/03/21 00:35:52;;;;;;;9.77;4.32;;;;;;;-145.01;100.00;64805.59;5070757;28;20433;-59
2023/03/21 00:38:21;;;;;;;16.35;5.15;;;;;;;-145.01;100.00;64805.59;5084411;28;20124;-59
2023/03/21 00:40:46;;;;;;;15.45;4.72;;;;;;;-145.01;100.00;64805.59;5088215;28;20031;-59
2023/03/21 00:43:13;;;;;;;14.77;4.85;;;;;;;-145.01;100.00;64805.59;5078092;28;20036;-59
2023/03/21 00:45:38;;;;;;;13.85;5.10;;;;;;;-145.01;100.00;64805.59;5076534;28;20151;-59
2023/03/21 00:48:04;;;;;;;16.65;4.93;;;;;;;-145.01;100.00;64805.59;5082624;28;20032;-59
2023/03/21 00:50:31;;;;;;;10.40;4.15;;;;;;;-145.01;100.00;64805.59;5079910;28;20112;-59
2023/03/21 00:52:56;;;;;;;11.07;4.40;;;;;;;-145.01;100.00;64805.59;5084594;28;20043;-59
2023/03/21 00:55:22;;;;;;;13.60;4.82;;;;;;;-145.01;100.00;64805.59;5068057;28;20545;-59
2023/03/21 00:57:47;;;;;;;11.90;4.32;;;;;;;-145.01;100.00;64805.59;5079020;28;20089;-59
2023/03/21 01:00:13;;;;;;;11.88;4.90;;;;;;;-145.01;100.00;64805.59;5086123;28;20094;-59
2023/03/21 01:02:55;;;;;;;11.95;4.95;;;;;;;-145.01;100.00;64805.59;5084058;28;20032;-59
2023/03/21 01:08:16;;;;;;;14.43;4.95;;;;;;;-145.01;100.00;64805.59;5081157;28;20168;-59
2023/03/21 01:10:42;;;;;;;15.57;5.53;;;;;;;-145.01;100.00;64805.59;5085598;28;20028;-59
2023/03/21 01:13:08;;;;;;;11.43;4.60;;;;;;;-145.01;100.00;64805.59;5085096;28;20036;-59
2023/03/21 01:15:35;;;;;;;9.90;4.18;;;;;;;-145.01;100.00;64805.59;5082356;28;20039;-59
2023/03/21 01:18:00;;;;;;;12.43;4.95;;;;;;;-145.01;100.00;64805.59;5078330;28;20386;-59
2023/03/21 01:20:26;;;;;;;10.48;4.85;;;;;;;-145.01;100.00;64805.59;5068741;28;20020;-59
2023/03/21 01:22:52;;;;;;;11.68;4.93;;;;;;;-145.01;100.00;64805.59;5090031;28;20094;-59
2023/03/21 01:25:17;;;;;;;11.38;4.97;;;;;;;-145.01;100.00;64805.59;5076961;28;20112;-59
2023/03/21 01:27:42;;;;;;;10.52;4.78;;;;;;;-145.01;100.00;64805.59;5080944;28;20039;-59
2023/03/21 01:30:08;;;;;;;9.10;4.53;;;;;;;-145.01;100.00;64805.59;5082450;28;20039;-59
2023/03/21 01:32:34;;;;;;;13.57;4.55;;;;;;;-145.01;100.00;64805.59;5065867;28;20346;-59
2023/03/21 01:34:59;;;;;;;12.93;4.85;;;;;;;-145.01;100.00;64805.59;5074121;28;20032;-59
2023/03/21 01:37:25;;;;;;;12.38;4.95;;;;;;;-145.01;100.00;64805.59;5080904;28;20039;-59
2023/03/21 01:39:51;;;;;;;13.32;5.13;;;;;;;-145.01;100.00;64805.59;5082595;28;20047;-59
2023/03/21 01:42:16;;;;;;;10.50;4.72;;;;;;;-145.01;100.00;64805.59;5079748;28;20082;-59
2023/03/21 01:44:58;;;;;;;16.02;6.00;;;;;;;-145.01;100.00;64805.59;5088036;28;20039;-59
2023/03/21 01:47:24;;;;;;;17.83;5.30;;;;;;;-145.01;100.00;64805.59;5060147;28;20355;-59
2023/03/21 01:49:51;;;;;;;9.82;4.95;;;;;;;-145.01;100.00;64805.59;5081764;28;20556;-59
2023/03/21 01:52:19;;;;;;;14.98;4.88;;;;;;;-145.01;100.00;64805.59;5084357;28;20115;-59
2023/03/21 01:54:44;;;;;;;12.15;4.80;;;;;;;-145.01;100.00;64805.59;5067334;28;20171;-59
2023/03/21 01:57:31;;;;;;;10.82;5.20;;;;;;;-145.01;100.00;64805.59;5057962;28;20099;-59
2023/03/21 01:59:58;;;;;;;11.75;5.20;;;;;;;-145.01;100.00;64805.59;5082768;28;20032;-59
2023/03/21 02:02:26;;;;;;;18.20;5.32;;;;;;;-145.01;100.00;64805.59;5060075;28;20032;-59
2023/03/21 02:04:56;;;;;;;12.07;4.70;;;;;;;-145.01;100.00;64805.59;5064398;28;20032;-59
2023/03/21 02:07:35;;;;;;;15.30;5.43;;;;;;;-145.01;100.00;64805.59;5078426;28;20070;-59
2023/03/21 02:10:03;;;;;;;16.05;5.55;;;;;;;-145.01;100.00;64805.59;5046274;28;20093;-59
2023/03/21 02:12:29;;;;;;;13.10;4.97;;;;;;;-145.01;100.00;64805.59;5063259;28;20053;-59
2023/03/21 02:14:55;;;;;;;9.82;4.57;;;;;;;-145.01;100.00;64805.59;5080703;28;20063;-59
2023/03/21 02:17:34;;;;;;;11.82;5.13;;;;;;;-145.01;100.00;64805.59;5076009;28;20053;-59
2023/03/21 02:20:31;;;;;;;14.15;5.32;;;;;;;-145.01;100.00;64805.59;5082160;28;20438;-59
2023/03/21 02:23:25;;;;;;;10.25;5.07;;;;;;;-145.01;100.00;64805.59;5085492;28;20051;-59
2023/03/21 02:26:28;;;;;;;13.05;4.88;;;;;;;-145.01;100.00;64805.59;5059437;28;20040;-59
2023/03/21 02:29:16;;;;;;;15.38;5.93;;;;;;;-145.01;100.00;64805.59;5039531;28;20434;-59
2023/03/21 02:31:47;;;;;;;12.82;5.40;;;;;;;-145.01;100.00;64805.59;5085093;28;20039;-60
2023/03/21 02:34:45;;;;;;;19.65;6.40;;;;;;;-145.01;100.00;64805.59;5065987;28;20035;-59
2023/03/21 02:37:25;;;;;;;19.75;5.32;;;;;;;-145.01;100.00;64805.59;5061455;28;20036;-58
2023/03/21 02:40:09;;;;;;;17.80;6.18;;;;;;;-145.01;100.00;64805.59;5069529;28;20039;-58
2023/03/21 02:42:54;;;;;;;16.00;5.32;;;;;;;-145.01;100.00;64805.59;5075281;28;20111;-59
2023/03/21 02:45:22;;;;;;;18.60;5.32;;;;;;;-145.01;100.00;64805.59;5083006;28;20176;-59
2023/03/21 02:48:08;;;;;;;12.25;5.70;;;;;;;-145.01;100.00;64805.59;5055428;28;20027;-59
2023/03/21 02:50:44;;;;;;;10.43;4.80;;;;;;;-145.01;100.00;64805.59;5080022;28;20038;-58
2023/03/21 02:53:10;;;;;;;15.45;6.07;;;;;;;-145.01;100.00;64805.59;5079311;28;20151;-58
2023/03/21 02:55:36;;;;;;;16.92;5.25;;;;;;;-145.01;100.00;64805.59;5051553;28;20036;-58
2023/03/21 02:58:02;;;;;;;19.30;5.88;;;;;;;-145.01;100.00;64805.59;5077615;28;20367;-59
2023/03/21 03:00:30;;;;;;;15.45;5.65;;;;;;;-145.01;100.00;64805.59;5046386;28;20048;-58
2023/03/21 03:02:55;;;;;;;16.55;5.28;;;;;;;-145.01;100.00;64805.59;5060077;28;20025;-58
2023/03/21 03:05:23;;;;;;;12.35;6.03;;;;;;;-145.01;100.00;64805.59;5049815;28;20027;-58
2023/03/21 03:07:57;;;;;;;13.95;5.53;;;;;;;-145.01;100.00;64805.59;5073650;28;20508;-59
2023/03/21 03:10:35;;;;;;;15.50;5.43;;;;;;;-145.01;100.00;64805.59;5075594;28;20091;-59
2023/03/21 03:13:00;;;;;;;15.73;6.05;;;;;;;-145.01;100.00;64805.59;5078404;28;20024;-59
2023/03/21 03:16:08;;;;;;;12.43;6.05;;;;;;;-145.01;100.00;64805.59;5078879;28;20410;-58
2023/03/21 03:19:03;;;;;;;18.63;5.68;;;;;;;-145.01;100.00;64805.59;5086934;28;20055;-59
2023/03/21 03:21:30;;;;;;;10.77;5.63;;;;;;;-145.01;100.00;64805.59;5060321;28;20098;-58
2023/03/21 03:24:19;;;;;;;15.77;6.05;;;;;;;-145.01;100.00;64805.59;5064157;28;20036;-59
2023/03/21 03:26:56;;;;;;;13.80;5.53;;;;;;;-145.01;100.00;64805.59;5072955;28;20032;-60
2023/03/21 03:29:22;;;;;;;17.27;5.90;;;;;;;-145.01;100.00;64805.59;5076215;28;20032;-60
2023/03/21 03:32:00;;;;;;;14.80;6.07;;;;;;;-145.01;100.00;64805.59;5045690;28;20375;-58
2023/03/21 03:34:31;;;;;;;15.00;5.85;;;;;;;-145.01;100.00;64805.59;5074769;28;20039;-58
2023/03/21 03:36:58;;;;;;;13.80;6.15;;;;;;;-145.01;100.00;64805.59;5062191;28;20051;-58
2023/03/21 03:39:26;;;;;;;16.33;5.45;;;;;;;-145.01;100.00;64805.59;5072321;28;20115;-59
2023/03/21 03:41:56;;;;;;;12.95;5.88;;;;;;;-145.01;100.00;64805.59;5072523;28;20055;-58
2023/03/21 03:44:21;;;;;;;8.65;5.03;;;;;;;-145.01;100.00;64805.59;5057930;28;20016;-58
2023/03/21 03:47:09;;;;;;;13.48;6.55;;;;;;;-145.01;100.00;64805.59;5075878;28;20430;-60
2023/03/21 03:49:47;;;;;;;17.92;6.25;;;;;;;-145.01;100.00;64805.59;5053682;28;20483;-58
2023/03/21 03:52:15;;;;;;;17.73;6.30;;;;;;;-145.01;100.00;64805.59;5068596;28;20029;-59
2023/03/21 03:54:42;;;;;;;16.63;6.30;;;;;;;-145.01;100.00;64805.59;5066171;28;20127;-59
2023/03/21 03:57:07;;;;;;;18.00;6.43;;;;;;;-145.01;100.00;64805.59;5054710;28;20039;-59
2023/03/21 03:59:36;;;;;;;12.85;5.63;;;;;;;-145.01;100.00;64805.59;5050588;28;20040;-59
2023/03/21 04:02:02;;;;;;;13.50;5.60;;;;;;;-145.01;100.00;64805.59;5081838;28;20457;-58
2023/03/21 04:04:28;;;;;;;17.25;6.35;;;;;;;-145.01;100.00;64805.59;5084367;28;20028;-59
2023/03/21 04:06:54;;;;;;;12.60;5.60;;;;;;;-145.01;100.00;64805.59;5073309;28;20020;-60
2023/03/21 04:09:20;;;;;;;13.93;5.30;;;;;;;-145.01;100.00;64805.59;5081699;28;20483;-60
2023/03/21 04:11:45;;;;;;;15.85;5.85;;;;;;;-145.01;100.00;64805.59;5086588;28;20024;-60
2023/03/21 04:14:11;;;;;;;15.57;6.30;;;;;;;-145.01;100.00;64805.59;5084944;28;20040;-60
2023/03/21 04:16:36;;;;;;;14.88;5.50;;;;;;;-145.01;100.00;64805.59;5087497;28;20533;-60
2023/03/21 04:19:02;;;;;;;13.13;5.88;;;;;;;-145.01;100.00;64805.59;5082600;28;21066;-59
2023/03/21 04:21:28;;;;;;;14.18;5.88;;;;;;;-145.01;100.00;64805.59;5083229;28;20100;-60
2023/03/21 04:23:54;;;;;;;17.58;6.40;;;;;;;-145.01;100.00;64805.59;5094521;28;20033;-60
2023/03/21 04:26:23;;;;;;;16.85;7.18;;;;;;;-145.01;100.00;64805.59;5080159;28;20032;-60
2023/03/21 04:28:49;;;;;;;16.27;6.43;;;;;;;-145.01;100.00;64805.59;5083846;28;20048;-60
2023/03/21 04:31:16;;;;;;;13.35;5.85;;;;;;;-145.01;100.00;64805.59;5089453;28;20059;-60
2023/03/21 04:33:46;;;;;;;13.05;6.07;;;;;;;-145.01;100.00;64805.59;5085927;28;20031;-60
2023/03/21 04:36:23;;;;;;;;;;;;;;;-145.01;100.00;64805.59;5080982;28;20474;-58
2023/03/21 04:38:49;;;;;;;20.60;6.70;;;;;;;-145.01;100.00;64805.59;5082320;28;19912;-58
2023/03/21 04:41:14;;;;;;;15.68;6.00;;;;;;;-145.01;100.00;64805.59;5086898;28;20032;-59
2023/03/21 04:43:40;;;;;;;13.50;6.07;;;;;;;-145.01;100.00;64805.59;5078955;28;20031;-58
2023/03/21 04:46:06;;;;;;;10.57;6.40;;;;;;;-145.01;100.00;64805.59;5085239;28;20025;-58
2023/03/21 04:48:31;;;;;;;15.18;6.80;;;;;;;-145.01;100.00;64805.59;5080982;28;20083;-59
2023/03/21 04:50:56;;;;;;;15.60;6.63;;;;;;;-145.01;100.00;64805.59;5082302;28;20032;-59
2023/03/21 04:53:22;;;;;;;16.73;5.80;;;;;;;-145.01;100.00;64805.59;5082405;28;20097;-58
2023/03/21 04:55:47;;;;;;;14.25;5.82;;;;;;;-145.01;100.00;64805.59;5078013;28;20077;-59
2023/03/21 04:58:13;;;;;;;13.73;5.43;;;;;;;-145.01;100.00;64805.59;5086325;28;20035;-59
2023/03/21 05:00:39;;;;;;;19.13;6.10;;;;;;;-145.01;100.00;64805.59;5084842;28;20024;-58
2023/03/21 05:03:07;;;;;;;12.27;5.55;;;;;;;-145.01;100.00;64805.59;5082456;28;20075;-58
2023/03/21 05:05:34;;;;;;;15.95;5.40;;;;;;;-145.01;100.00;64805.59;5080041;28;20020;-59
2023/03/21 05:08:00;;;;;;;13.80;5.60;;;;;;;-145.01;100.00;64805.59;5079299;28;20511;-59
2023/03/21 05:10:25;;;;;;;15.70;5.53;;;;;;;-145.01;100.00;64805.59;5090589;28;20232;-59
2023/03/21 05:12:51;;;;;;;13.48;5.40;;;;;;;-145.01;100.00;64805.59;5085639;28;20027;-59
2023/03/21 05:15:16;;;;;;;17.73;6.18;;;;;;;-145.01;100.00;64805.59;5083526;28;20045;-58
2023/03/21 05:17:41;;;;;;;19.13;6.43;;;;;;;-145.01;100.00;64805.59;5089884;28;21451;-58
2023/03/21 05:20:10;;;;;;;12.38;5.38;;;;;;;-145.01;100.00;64805.59;5083852;28;21786;-58
2023/03/21 05:22:39;;;;;;;13.02;5.75;;;;;;;-145.01;100.00;64805.59;5059524;28;20252;-61
2023/03/21 05:25:08;;;;;;;13.73;5.35;;;;;;;-145.01;100.00;64805.59;5077931;28;20028;-60
2023/03/21 05:27:35;;;;;;;14.10;5.85;;;;;;;-145.01;100.00;64805.59;5092248;28;20508;-58
2023/03/21 05:30:01;;;;;;;14.15;5.75;;;;;;;-145.01;100.00;64805.59;5087706;28;20032;-59
2023/03/21 05:32:26;;;;;;;10.85;5.13;;;;;;;-145.01;100.00;64805.59;5086219;28;20027;-58
2023/03/21 05:34:52;;;;;;;12.30;5.40;;;;;;;-145.01;100.00;64805.59;5078887;28;20036;-58
2023/03/21 05:37:17;;;;;;;13.52;5.70;;;;;;;-145.01;100.00;64805.59;5081714;28;20921;-59
2023/03/21 05:39:43;;;;;;;14.13;6.05;;;;;;;-145.01;100.00;64805.59;5085683;28;20024;-59
2023/03/21 05:42:08;;;;;;;16.88;6.85;;;;;;;-145.01;100.00;64805.59;5073769;28;20021;-59
2023/03/21 05:44:34;;;;;;;17.80;5.72;;;;;;;-145.01;100.00;64805.59;5066094;28;20047;-59
2023/03/21 05:46:59;;;;;;;17.95;5.88;;;;;;;-145.01;100.00;64805.59;5076117;28;20056;-59
2023/03/21 05:49:25;;;;;;;26.13;6.30;;;;;;;-145.01;100.00;64805.59;5093617;28;20035;-58
2023/03/21 05:51:51;;;;;;;17.75;7.50;;;;;;;-145.01;100.00;64805.59;5084212;28;20401;-58
2023/03/21 05:54:16;;;;;;;18.70;7.53;;;;;;;-145.01;100.00;64805.59;5086849;28;20036;-58
2023/03/21 05:56:42;;;;;;;17.90;6.18;;;;;;;-145.01;100.00;64805.59;5060881;28;20540;-58
2023/03/21 05:59:07;;;;;;;19.10;6.63;;;;;;;-145.01;100.00;64805.59;5084898;28;20032;-59
2023/03/21 06:01:32;;;;;;;15.10;6.18;;;;;;;-145.01;100.00;64805.59;5085458;28;20032;-59
2023/03/21 06:03:58;;;;;;;16.27;6.63;;;;;;;-145.01;100.00;64805.59;5081442;28;20437;-59
2023/03/21 06:06:23;;;;;;;20.50;7.68;;;;;;;-145.01;100.00;64805.59;5077074;28;20352;-59
2023/03/21 06:08:49;;;;;;;16.52;7.30;;;;;;;-145.01;100.00;64805.59;5081202;28;20092;-59
2023/03/21 06:11:20;;;;;;;19.50;6.35;;;;;;;-145.01;100.00;64805.59;5088356;28;20020;-58
2023/03/21 06:13:45;;;;;;;16.92;6.75;;;;;;;-145.01;100.00;64805.59;5042568;28;20032;-58
2023/03/21 06:16:10;;;;;;;14.90;6.35;;;;;;;-145.01;100.00;64805.59;5062437;28;20043;-59
2023/03/21 06:18:36;;;;;;;15.25;6.43;;;;;;;-145.01;100.00;64805.59;5038976;28;20046;-59
2023/03/21 06:21:01;;;;;;;17.27;6.15;;;;;;;-145.01;100.00;64805.59;5085981;28;20028;-59
2023/03/21 06:23:27;;;;;;;17.10;6.25;;;;;;;-145.01;100.00;64805.59;5049130;28;20973;-59
2023/03/21 06:25:52;;;;;;;13.98;5.88;;;;;;;-145.01;100.00;64805.59;5061375;28;20043;-61
2023/03/21 06:28:18;;;;;;;14.38;6.70;;;;;;;-145.01;100.00;64805.59;5081766;28;20027;-59
2023/03/21 06:30:43;;;;;;;21.38;7.60;;;;;;;-145.01;100.00;64805.59;5059172;28;20020;-59
2023/03/21 06:33:09;;;;;;;18.05;8.10;;;;;;;-145.01;100.00;64805.59;5060867;28;20059;-59
2023/03/21 06:35:34;;;;;;;18.42;6.22;;;;;;;-145.01;100.00;64805.59;5085784;28;20390;-59
2023/03/21 06:38:00;;;;;;;13.18;5.80;;;;;;;-145.01;100.00;64805.59;5075641;28;20032;-59
2023/03/21 06:40:25;;;;;;;18.75;5.85;;;;;;;-145.01;100.00;64805.59;5082816;28;20050;-59
2023/03/21 06:42:50;;;;;;;12.85;5.18;;;;;;;-145.01;100.00;64805.59;5061838;28;20035;-58
2023/03/21 06:45:16;;;;;;;20.83;6.05;;;;;;;-145.01;100.00;64805.59;5077102;28;20025;-59
2023/03/21 06:47:41;;;;;;;18.98;6.20;;;;;;;-145.01;100.00;64805.59;5077857;28;20056;-58
2023/03/21 06:50:08;;;;;;;15.10;5.93;;;;;;;-145.01;100.00;64805.59;5061966;28;20028;-59
2023/03/21 06:52:33;;;;;;;20.60;6.50;;;;;;;-145.01;100.00;64805.59;5083639;28;20235;-58
2023/03/21 06:54:59;;;;;;;13.82;6.07;;;;;;;-145.01;100.00;64805.59;5065459;28;20043;-59
2023/03/21 06:57:24;;;;;;;14.05;6.00;;;;;;;-145.01;100.00;64805.59;5057166;28;20024;-59
2023/03/21 06:59:50;;;;;;;11.40;5.75;;;;;;;-145.01;100.00;64805.59;5088482;28;20028;-59
2023/03/21 07:02:15;;;;;;;17.08;6.63;;;;;;;-145.01;100.00;64805.59;5085940;28;20064;-59
2023/03/21 07:04:41;;;;;;;18.00;6.75;;;;;;;-145.01;100.00;64805.59;5063453;28;20245;-59
2023/03/21 07:07:06;;;;;;;18.42;9.07;;;;;;;-145.01;100.00;64805.59;5079493;28;20024;-58
2023/03/21 07:09:31;;;;;;;25.27;13.32;;;;;;;-145.01;100.00;64805.59;5089709;28;20032;-58
2023/03/21 07:11:57;;;;;;;18.75;8.40;;;;;;;-145.01;100.00;64805.59;5079940;28;20036;-59
2023/03/21 07:14:22;;;;;;;13.40;5.60;;;;;;;-145.01;100.00;64805.59;5059982;28;20056;-58
2023/03/21 07:16:48;;;;;;;13.60;6.03;;;;;;;-145.01;100.00;64805.59;5081811;28;20031;-59
2023/03/21 07:19:14;;;;;;;14.77;5.57;;;;;;;-145.01;100.00;64805.59;5078436;28;20575;-59
2023/03/21 07:21:40;;;;;;;18.63;6.18;;;;;;;-145.01;100.00;64805.59;5078073;28;20384;-58
2023/03/21 07:24:05;;;;;;;12.65;5.60;;;;;;;-145.01;100.00;64805.59;5075619;28;20024;-58
2023/03/21 07:26:31;;;;;;;12.02;6.45;;;;;;;-145.01;100.00;64805.59;5084935;28;20424;-58
2023/03/21 07:28:56;;;;;;;15.80;6.63;;;;;;;-145.01;100.00;64805.59;5075234;28;20023;-59
2023/03/21 07:31:24;;;;;;;17.83;6.38;;;;;;;-145.01;100.00;64805.59;5054990;28;20075;-58
2023/03/21 07:33:50;;;;;;;15.75;6.65;;;;;;;-145.01;100.00;64805.59;5076988;28;20036;-59
2023/03/21 07:36:15;;;;;;;20.98;6.70;;;;;;;-145.01;100.00;64805.59;5088121;28;20120;-58
2023/03/21 07:38:44;;;;;;;14.23;5.95;;;;;;;-145.01;100.00;64805.59;5054238;28;20028;-59
2023/03/21 07:41:09;;;;;;;22.50;7.38;;;;;;;-145.01;100.00;64805.59;5087396;28;20480;-59
2023/03/21 07:43:35;;;;;;;16.15;6.60;;;;;;;-145.01;100.00;64805.59;5078400;28;20027;-59
2023/03/21 07:46:00;;;;;;;18.55;6.88;;;;;;;-145.01;100.00;64805.59;5085289;28;20028;-59
2023/03/21 07:48:26;;;;;;;20.55;9.55;;;;;;;-145.01;100.00;64805.59;5087498;28;20055;-58
2023/03/21 07:50:52;;;;;;;25.52;11.32;;;;;;;-145.01;100.00;64805.59;5061006;28;20023;-59
2023/03/21 07:53:18;;;;;;;23.50;10.18;;;;;;;-145.01;100.00;64805.59;5076781;28;20035;-58
2023/03/21 07:55:43;;;;;;;22.20;9.32;;;;;;;-145.01;100.00;64805.59;5082690;28;20032;-59
2023/03/21 07:58:08;;;;;;;14.70;7.30;;;;;;;-145.01;100.00;64805.59;5072963;28;20060;-59
2023/03/21 08:00:34;;;;;;;17.65;6.57;;;;;;;-145.01;100.00;64805.59;5084133;28;20032;-59
2023/03/21 08:03:00;;;;;;;20.73;7.80;;;;;;;-145.01;100.00;64805.59;5060568;28;20115;-59
2023/03/21 08:05:35;;;;;;;16.67;6.85;;;;;;;-145.01;100.00;64805.59;5082565;28;20051;-59
2023/03/21 08:08:01;;;;;;;23.48;7.95;;;;;;;-145.01;100.00;64805.59;5072083;28;20063;-59
2023/03/21 08:10:27;;;;;;;21.15;8.00;;;;;;;-145.01;100.00;64805.59;5083186;28;20150;-59
2023/03/21 08:12:52;;;;;;;16.75;7.85;;;;;;;-145.01;100.00;64805.59;5075851;28;20040;-59
2023/03/21 08:15:17;;;;;;;24.20;8.77;;;;;;;-145.01;100.00;64805.59;5084896;28;20394;-59
2023/03/21 08:17:44;;;;;;;13.27;8.30;;;;;;;-145.01;100.00;64805.59;5070770;28;20038;-59
2023/03/21 08:20:15;;;;;;;21.55;7.82;;;;;;;-145.01;100.00;64805.59;5059608;28;20028;-59
2023/03/21 08:22:40;;;;;;;18.85;7.95;;;;;;;-145.01;100.00;64805.59;5078548;28;20040;-59
2023/03/21 08:25:06;;;;;;;22.45;10.20;;;;;;;-145.01;100.00;64805.59;5080296;28;20028;-59
2023/03/21 08:27:32;;;;;;;16.50;8.43;;;;;;;-145.01;100.00;64805.59;5094001;28;20028;-59
2023/03/21 08:29:58;;;;;;;14.05;6.00;;;;;;;-145.01;100.00;64805.59;5075644;28;20464;-59
2023/03/21 08:32:29;;;;;;;21.83;8.60;;;;;;;-145.01;100.00;64805.59;5080107;28;20024;-59
2023/03/21 08:34:57;;;;;;;20.08;7.13;;;;;;;-145.01;100.00;64805.59;5053327;28;20025;-59
2023/03/21 08:37:23;;;;;;;20.80;7.10;;;;;;;-145.01;100.00;64805.59;5089516;28;20115;-59
2023/03/21 08:39:48;;;;;;;18.60;8.00;;;;;;;-145.01;100.00;64805.59;5077195;28;20429;-59
2023/03/21 08:42:14;;;;;;;16.15;7.28;;;;;;;-145.01;100.00;64805.59;5080708;28;20028;-59
2023/03/21 08:44:40;;;;;;;17.45;7.35;;;;;;;-145.01;100.00;64805.59;5061267;28;20394;-59
2023/03/21 08:47:05;;;;;;;22.75;7.65;;;;;;;-145.01;100.00;64805.59;5060283;28;20029;-59
2023/03/21 08:49:31;;;;;;;17.48;7.25;;;;;;;-145.01;100.00;64805.59;5091615;28;20026;-59
2023/03/21 08:51:56;;;;;;;14.43;6.32;;;;;;;-145.01;100.00;64805.59;5079584;28;20020;-59
2023/03/21 08:54:23;;;;;;;17.25;7.63;;;;;;;-145.01;100.00;64805.59;5065634;28;20538;-59
2023/03/21 08:56:48;;;;;;;19.08;7.18;;;;;;;-145.01;100.00;64805.59;5063814;28;20055;-59
2023/03/21 08:59:14;;;;;;;19.33;7.80;;;;;;;-145.01;100.00;64805.59;5078694;28;20032;-60
2023/03/21 09:01:40;;;;;;;23.52;7.28;;;;;;;-145.01;100.00;64805.59;5076576;28;20438;-59
2023/03/21 09:04:09;;;;;;;22.88;7.43;;;;;;;-145.01;100.00;64805.59;5086619;28;20020;-59
2023/03/21 09:06:35;;;;;;;15.43;6.88;;;;;;;-145.01;100.00;64805.59;5081236;28;20123;-59
2023/03/21 09:09:00;;;;;;;16.30;7.00;;;;;;;-145.01;100.00;64805.59;5087927;28;20494;-59
2023/03/21 09:11:26;;;;;;;23.75;6.70;;;;;;;-145.01;100.00;64805.59;5077511;28;20047;-58
2023/03/21 09:13:52;;;;;;;24.30;7.70;;;;;;;-145.01;100.00;64805.59;5052202;28;20487;-59
2023/03/21 09:16:17;;;;;;;22.05;7.50;;;;;;;-145.01;100.00;64805.59;5061920;28;20048;-59
2023/03/21 09:18:54;;;;;;;17.10;7.32;;;;;;;-145.01;100.00;64805.59;5059986;28;20021;-58
2023/03/21 09:21:19;;;;;;;22.48;7.30;;;;;;;-145.01;100.00;64805.59;5058878;28;20043;-61
2023/03/21 09:23:45;;;;;;;28.35;7.88;;;;;;;-145.01;100.00;64805.59;5051203;28;20032;-61
2023/03/21 09:26:12;;;;;;;20.00;6.68;;;;;;;-145.01;100.00;64805.59;5054430;28;20029;-60
2023/03/21 09:28:38;;;;;;;17.98;7.00;;;;;;;-145.01;100.00;64805.59;5054802;28;20098;-59
2023/03/21 09:31:05;;;;;;;17.02;6.63;;;;;;;-145.01;100.00;64805.59;5062864;28;20867;-59
2023/03/21 09:33:31;;;;;;;14.50;6.07;;;;;;;-145.01;100.00;64805.59;5064284;28;20075;-61
2023/03/21 09:35:59;;;;;;;16.98;6.45;;;;;;;-145.01;100.00;64805.59;5054208;28;20075;-59
2023/03/21 09:38:29;;;;;;;18.63;7.07;;;;;;;-145.01;100.00;64805.59;5051136;28;20379;-59
2023/03/21 09:41:00;;;;;;;20.73;7.13;;;;;;;-145.01;100.00;64805.59;5053302;28;20497;-59
2023/03/21 09:43:38;;;;;;;13.93;5.90;;;;;;;-145.01;100.00;64805.59;5049239;28;20287;-59
2023/03/21 09:46:24;;;;;;;18.75;6.68;;;;;;;-145.01;100.00;64805.59;5053208;28;20037;-59
2023/03/21 09:48:58;;;;;;;18.45;7.70;;;;;;;-145.01;100.00;64805.59;5056889;28;20041;-61
2023/03/21 09:51:27;;;;;;;15.35;7.68;;;;;;;-145.01;100.00;64805.59;5054402;28;20500;-60
2023/03/21 09:53:53;;;;;;;21.60;7.45;;;;;;;-145.01;100.00;64805.59;5043066;28;20116;-59
2023/03/21 09:56:18;;;;;;;23.98;7.55;;;;;;;-145.01;100.00;64805.59;5037494;28;20505;-59
2023/03/21 09:58:49;;;;;;;27.98;7.93;;;;;;;-145.01;100.00;64805.59;5054358;28;20426;-59
2023/03/21 10:01:27;;;;;;;18.73;7.22;;;;;;;-145.01;100.00;64805.59;5037942;28;20109;-59
2023/03/21 10:03:53;;;;;;;19.88;7.50;;;;;;;-145.01;100.00;64805.59;5043191;28;20035;-59
2023/03/21 10:06:20;;;;;;;31.58;8.55;;;;;;;-145.01;100.00;64805.59;5057075;28;20040;-59
2023/03/21 10:08:46;;;;;;;18.30;7.13;;;;;;;-145.01;100.00;64805.59;5051239;28;20159;-59
2023/03/21 10:11:26;;;;;;;19.23;6.57;;;;;;;-145.01;100.00;64805.59;5059370;28;20040;-59
2023/03/21 10:14:01;;;;;;;21.80;6.82;;;;;;;-145.01;100.00;64805.59;5041123;28;20131;-59
2023/03/21 10:16:27;;;;;;;19.60;7.47;;;;;;;-145.01;100.00;64805.59;5047756;28;20032;-59
2023/03/21 10:18:53;;;;;;;17.30;6.97;;;;;;;-145.01;100.00;64805.59;5060590;28;20024;-59
2023/03/21 10:21:23;;;;;;;19.55;7.32;;;;;;;-145.01;100.00;64805.59;5059758;28;20081;-59
2023/03/21 10:23:50;;;;;;;20.88;7.32;;;;;;;-145.01;100.00;64805.59;5055643;28;20156;-59
2023/03/21 10:26:16;;;;;;;20.70;7.75;;;;;;;-145.01;100.00;64805.59;5038721;28;20120;-58
2023/03/21 10:28:43;;;;;;;18.20;7.80;;;;;;;-145.01;100.00;64805.59;5052159;28;20033;-59
2023/03/21 10:31:09;;;;;;;19.55;6.28;;;;;;;-145.01;100.00;64805.59;5055150;28;20611;-59
2023/03/21 10:33:38;;;;;;;18.08;6.15;;;;;;;-145.01;100.00;64805.59;5060084;28;20038;-59
2023/03/21 10:36:09;;;;;;;22.52;7.40;;;;;;;-145.01;100.00;64805.59;5055151;28;20037;-59
2023/03/21 10:38:34;;;;;;;;;;;;;;;-145.01;100.00;64805.59;5061974;28;20422;-58
2023/03/21 10:41:00;;;;;;;22.05;7.68;;;;;;;-145.01;100.00;64805.59;5055575;28;19920;-59
2023/03/21 10:43:36;;;;;;;16.85;5.70;;;;;;;-145.01;100.00;64805.59;5056486;28;20075;-58
2023/03/21 10:46:06;;;;;;;18.98;6.68;;;;;;;-145.01;100.00;64805.59;5060357;28;20036;-59
2023/03/21 10:48:35;;;;;;;17.60;6.32;;;;;;;-145.01;100.00;64805.59;5057605;28;20055;-59
2023/03/21 10:51:00;;;;;;;18.08;7.78;;;;;;;-145.01;100.00;64805.59;5058405;28;20452;-59
2023/03/21 10:53:40;;;;;;;17.73;7.97;;;;;;;-145.01;100.00;64805.59;5059008;28;20032;-59
2023/03/21 10:56:09;;;;;;;21.92;7.43;;;;;;;-145.01;100.00;64805.59;5055833;28;20106;-59
2023/03/21 10:58:45;;;;;;;16.33;6.83;;;;;;;-145.01;100.00;64805.59;5053633;28;20033;-61
2023/03/21 11:01:14;;;;;;;20.52;7.05;;;;;;;-145.01;100.00;64805.59;5056043;28;20024;-61
2023/03/21 11:03:43;;;;;;;15.52;7.30;;;;;;;-145.01;100.00;64805.59;5074559;28;20029;-61
2023/03/21 11:06:21;;;;;;;17.60;9.48;;;;;;;-145.01;100.00;64805.59;5062318;28;20044;-59
2023/03/21 11:08:53;;;;;;;22.77;8.82;;;;;;;-145.01;100.00;64805.59;5058856;28;20055;-60
2023/03/21 11:11:21;;;;;;;19.25;6.95;;;;;;;-145.01;100.00;64805.59;5076597;28;20036;-59